createdAt,value
2019-04-01T00:00:10.387Z,4.40
2019-04-01T00:02:39.303Z,4.63
2019-04-01T00:05:08.255Z,4.30
2019-04-01T00:07:36.792Z,5.50
2019-04-01T00:10:05.888Z,4.70
2019-04-01T00:12:34.085Z,4.63
2019-04-01T00:15:02.879Z,5.30
2019-04-01T00:17:30.290Z,4.97
2019-04-01T00:19:57.752Z,4.47
2019-04-01T00:22:25.767Z,4.20
2019-04-01T00:24:54.260Z,5.23
2019-04-01T00:27:23.596Z,5.60
2019-04-01T00:29:50.689Z,5.07
2019-04-01T00:32:19.548Z,5.13
2019-04-01T00:34:46.576Z,6.27
2019-04-01T00:37:13.736Z,5.40
2019-04-01T00:39:41.496Z,4.43
2019-04-01T00:42:16.599Z,5.50
2019-04-01T00:44:44.395Z,5.00
2019-04-01T00:47:11.495Z,4.80
2019-04-01T00:49:40.321Z,4.70
2019-04-01T00:52:08.208Z,4.57
2019-04-01T00:54:35.488Z,5.20
2019-04-01T00:57:03.071Z,4.83
2019-04-01T00:59:30.395Z,4.40
2019-04-01T01:01:58.623Z,4.97
2019-04-01T01:04:26.067Z,4.70
2019-04-01T01:06:54.686Z,5.37
2019-04-01T01:09:22.265Z,5.03
2019-04-01T01:11:51.153Z,4.77
2019-04-01T01:14:20.076Z,4.83
2019-04-01T01:16:48.716Z,5.30
2019-04-01T01:19:18.278Z,5.87
2019-04-01T01:21:46.339Z,5.60
2019-04-01T01:24:13.599Z,5.37
2019-04-01T01:26:40.744Z,5.37
2019-04-01T01:29:07.884Z,5.53
2019-04-01T01:31:35.258Z,4.87
2019-04-01T01:34:02.805Z,5.10
2019-04-01T01:36:29.851Z,5.10
2019-04-01T01:38:59.167Z,4.87
2019-04-01T01:41:26.927Z,5.13
2019-04-01T01:43:54.076Z,4.90
2019-04-01T01:46:22.522Z,5.07
2019-04-01T01:48:49.852Z,4.50
2019-04-01T01:51:16.812Z,5.50
2019-04-01T01:53:44.008Z,5.13
2019-04-01T01:56:12.104Z,5.17
2019-04-01T01:58:39.376Z,4.90
2019-04-01T02:01:08.639Z,4.80
2019-04-01T02:03:37.568Z,4.60
2019-04-01T02:06:06.632Z,4.90
2019-04-01T02:08:33.757Z,4.50
2019-04-01T02:11:00.656Z,5.13
2019-04-01T02:13:27.724Z,5.13
2019-04-01T02:15:55.315Z,4.87
2019-04-01T02:18:22.668Z,5.10
2019-04-01T02:20:49.963Z,4.83
2019-04-01T02:23:18.083Z,4.87
2019-04-01T02:25:46.235Z,5.60
2019-04-01T02:28:13.177Z,5.20
2019-04-01T02:30:41.837Z,5.23
2019-04-01T02:33:09.477Z,5.77
2019-04-01T02:35:36.466Z,5.90
2019-04-01T02:38:03.457Z,5.17
2019-04-01T02:40:32.358Z,4.90
2019-04-01T02:42:59.472Z,5.20
2019-04-01T02:45:27.112Z,5.90
2019-04-01T02:47:56.081Z,6.00
2019-04-01T02:50:23.658Z,5.53
2019-04-01T02:52:51.794Z,4.80
2019-04-01T02:55:18.867Z,5.33
2019-04-01T02:57:47.480Z,5.40
2019-04-01T03:00:16.911Z,5.13
2019-04-01T03:02:45.648Z,4.23
2019-04-01T03:05:12.489Z,5.40
2019-04-01T03:07:39.632Z,4.80
2019-04-01T03:10:07.496Z,4.90
2019-04-01T03:12:34.508Z,5.23
2019-04-01T03:15:01.975Z,4.90
2019-04-01T03:17:28.976Z,5.07
2019-04-01T03:19:56.115Z,4.97
2019-04-01T03:22:23.176Z,4.57
2019-04-01T03:24:52.087Z,4.60
2019-04-01T03:27:20.282Z,4.80
2019-04-01T03:29:48.823Z,4.30
2019-04-01T03:32:17.148Z,4.57
2019-04-01T03:34:44.017Z,4.57
2019-04-01T03:37:11.659Z,4.60
2019-04-01T03:39:39.668Z,5.50
2019-04-01T03:42:08.439Z,4.40
2019-04-01T03:44:36.102Z,4.97
2019-04-01T03:47:05.003Z,5.30
2019-04-01T03:49:34.158Z,5.10
2019-04-01T03:52:02.515Z,4.93
2019-04-01T03:54:30.029Z,5.43
2019-04-01T03:56:59.409Z,4.70
2019-04-01T03:59:27.147Z,5.33
2019-04-01T04:01:55.729Z,4.90
2019-04-01T04:04:23.320Z,3.90
2019-04-01T04:06:50.477Z,4.77
2019-04-01T04:09:18.635Z,4.70
2019-04-01T04:11:46.431Z,4.67
2019-04-01T04:14:13.613Z,4.10
2019-04-01T04:16:41.769Z,4.50
2019-04-01T04:19:09.177Z,5.30
2019-04-01T04:21:38.064Z,5.17
2019-04-01T04:24:05.068Z,5.23
2019-04-01T04:26:32.822Z,4.50
2019-04-01T04:29:00.563Z,5.10
2019-04-01T04:31:27.872Z,4.27
2019-04-01T04:33:54.993Z,4.23
2019-04-01T04:36:22.654Z,4.40
2019-04-01T04:38:50.327Z,4.90
2019-04-01T04:41:17.448Z,4.83
2019-04-01T04:43:45.361Z,4.93
2019-04-01T04:46:14.269Z,4.83
2019-04-01T04:48:41.659Z,5.07
2019-04-01T04:51:09.044Z,5.10
2019-04-01T04:53:36.116Z,4.17
2019-04-01T04:56:03.933Z,5.20
2019-04-01T04:58:32.911Z,5.33
2019-04-01T05:01:01.156Z,5.03
2019-04-01T05:03:28.389Z,5.50
2019-04-01T05:05:57.496Z,4.73
2019-04-01T05:08:25.032Z,4.97
2019-04-01T05:10:52.040Z,4.87
2019-04-01T05:13:22.309Z,4.73
2019-04-01T05:15:50.729Z,4.67
2019-04-01T05:18:18.217Z,4.60
2019-04-01T05:20:46.831Z,5.23
2019-04-01T05:23:14.936Z,4.33
2019-04-01T05:25:43.266Z,5.43
2019-04-01T05:28:13.772Z,4.57
2019-04-01T05:30:44.857Z,3.70
2019-04-01T05:33:13.159Z,4.37
2019-04-01T05:35:40.711Z,4.47
2019-04-01T05:38:09.972Z,4.27
2019-04-01T05:40:37.280Z,4.27
2019-04-01T05:43:04.395Z,4.33
2019-04-01T05:45:32.455Z,4.13
2019-04-01T05:47:59.811Z,4.07
2019-04-01T05:50:26.683Z,4.23
2019-04-01T05:52:55.732Z,3.93
2019-04-01T05:55:23.188Z,3.77
2019-04-01T05:57:50.653Z,4.00
2019-04-01T06:00:27.467Z,4.60
2019-04-01T06:02:54.776Z,3.90
2019-04-01T06:05:22.498Z,4.80
2019-04-01T06:07:51.624Z,3.70
2019-04-01T06:10:18.752Z,3.90
2019-04-01T06:12:46.891Z,4.00
2019-04-01T06:15:14.514Z,4.33
2019-04-01T06:17:42.199Z,4.40
2019-04-01T06:20:10.103Z,3.23
2019-04-01T06:22:38.255Z,3.80
2019-04-01T06:25:07.299Z,3.50
2019-04-01T06:27:34.924Z,3.27
2019-04-01T06:30:02.166Z,3.80
2019-04-01T06:32:29.955Z,3.50
2019-04-01T06:34:58.917Z,3.43
2019-04-01T06:37:26.928Z,3.57
2019-04-01T06:39:54.343Z,3.67
2019-04-01T06:42:21.323Z,3.80
2019-04-01T06:44:49.850Z,3.83
2019-04-01T06:47:16.960Z,3.93
2019-04-01T06:49:44.480Z,3.60
2019-04-01T06:52:11.972Z,3.67
2019-04-01T06:54:40.947Z,3.40
2019-04-01T06:57:09.636Z,3.20
2019-04-01T06:59:37.323Z,3.37
2019-04-01T07:02:04.754Z,3.30
2019-04-01T07:04:33.335Z,3.77
2019-04-01T07:07:01.020Z,4.40
2019-04-01T07:09:29.021Z,3.87
2019-04-01T07:11:57.013Z,3.30
2019-04-01T07:14:24.015Z,4.23
2019-04-01T07:16:51.139Z,3.87
2019-04-01T07:19:18.491Z,3.77
2019-04-01T07:21:46.015Z,3.47
2019-04-01T07:24:13.310Z,3.60
2019-04-01T07:26:40.695Z,4.03
2019-04-01T07:29:10.048Z,3.80
2019-04-01T07:31:39.005Z,3.40
2019-04-01T07:34:07.559Z,3.80
2019-04-01T07:36:35.675Z,2.70
2019-04-01T07:39:05.207Z,3.10
2019-04-01T07:41:34.512Z,3.27
2019-04-01T07:44:02.455Z,4.00
2019-04-01T07:46:29.894Z,4.00
2019-04-01T07:48:58.317Z,3.40
2019-04-01T07:51:30.422Z,3.20
2019-04-01T07:53:57.918Z,2.63
2019-04-01T07:56:25.332Z,3.20
2019-04-01T07:58:52.552Z,3.60
2019-04-01T08:01:19.689Z,3.83
2019-04-01T08:03:48.528Z,3.37
2019-04-01T08:06:16.399Z,3.73
2019-04-01T08:08:46.273Z,4.03
2019-04-01T08:11:13.048Z,3.00
2019-04-01T08:13:40.171Z,3.33
2019-04-01T08:16:08.574Z,3.77
2019-04-01T08:18:35.788Z,3.73
2019-04-01T08:21:03.003Z,3.67
2019-04-01T08:23:31.626Z,3.30
2019-04-01T08:25:58.619Z,4.13
2019-04-01T08:28:26.328Z,3.77
2019-04-01T08:30:53.451Z,3.83
2019-04-01T08:33:20.590Z,4.20
2019-04-01T08:35:49.402Z,3.87
2019-04-01T08:38:16.364Z,3.97
2019-04-01T08:40:43.491Z,4.40
2019-04-01T08:43:11.903Z,4.20
2019-04-01T08:45:39.020Z,3.80
2019-04-01T08:48:06.969Z,4.47
2019-04-01T08:50:34.575Z,4.90
2019-04-01T08:53:01.675Z,3.40
2019-04-01T08:55:28.844Z,3.83
2019-04-01T08:57:58.005Z,3.83
2019-04-01T09:00:25.151Z,4.10
2019-04-01T09:02:52.472Z,5.23
2019-04-01T09:05:19.351Z,4.50
2019-04-01T09:07:47.356Z,5.67
2019-04-01T09:10:14.536Z,4.83
2019-04-01T09:12:43.632Z,4.07
2019-04-01T09:15:11.904Z,4.33
2019-04-01T09:17:40.428Z,5.50
2019-04-01T09:20:09.260Z,4.47
2019-04-01T09:22:36.368Z,5.57
2019-04-01T09:25:04.445Z,5.10
2019-04-01T09:27:33.039Z,5.53
2019-04-01T09:30:00.995Z,5.40
2019-04-01T09:32:29.923Z,6.77
2019-04-01T09:34:56.935Z,5.90
2019-04-01T09:37:24.128Z,5.37
2019-04-01T09:39:51.253Z,5.10
2019-04-01T09:42:19.152Z,5.13
2019-04-01T09:44:47.234Z,5.03
2019-04-01T09:47:14.264Z,6.20
2019-04-01T09:49:42.039Z,5.77
2019-04-01T09:52:09.505Z,5.50
2019-04-01T09:54:36.500Z,5.30
2019-04-01T09:57:16.483Z,5.70
2019-04-01T09:59:36.280Z,5.67
2019-04-01T10:02:05.799Z,6.00
2019-04-01T10:04:34.237Z,5.47
2019-04-01T10:07:01.956Z,6.13
2019-04-01T10:09:29.684Z,7.40
2019-04-01T10:11:58.736Z,5.70
2019-04-01T10:14:26.041Z,5.30
2019-04-01T10:16:53.112Z,6.10
2019-04-01T10:19:20.741Z,6.10
2019-04-01T10:21:49.259Z,6.40
2019-04-01T10:24:16.776Z,5.70
2019-04-01T10:26:44.336Z,7.27
2019-04-01T10:29:12.045Z,5.43
2019-04-01T10:31:40.795Z,5.90
2019-04-01T10:34:09.485Z,6.13
2019-04-01T10:36:36.898Z,6.33
2019-04-01T10:39:06.332Z,5.93
2019-04-01T10:41:33.460Z,6.13
2019-04-01T10:44:04.704Z,6.60
2019-04-01T10:46:30.531Z,6.03
2019-04-01T10:48:58.539Z,6.23
2019-04-01T10:51:25.605Z,5.57
2019-04-01T10:53:52.912Z,7.23
2019-04-01T10:56:20.151Z,7.47
2019-04-01T10:58:47.997Z,6.50
2019-04-01T11:01:15.225Z,7.37
2019-04-01T11:03:43.196Z,6.20
2019-04-01T11:06:12.045Z,6.77
2019-04-01T11:08:39.916Z,6.13
2019-04-01T11:11:07.168Z,7.30
2019-04-01T11:13:36.165Z,7.00
2019-04-01T11:16:04.324Z,8.03
2019-04-01T11:18:31.384Z,6.33
2019-04-01T11:20:59.103Z,6.03
2019-04-01T11:23:26.233Z,7.47
2019-04-01T11:25:53.840Z,6.60
2019-04-01T11:28:20.824Z,7.13
2019-04-01T11:30:48.122Z,7.17
2019-04-01T11:33:15.673Z,7.90
2019-04-01T11:35:42.723Z,8.30
2019-04-01T11:38:11.275Z,7.17
2019-04-01T11:40:39.084Z,7.10
2019-04-01T11:43:06.572Z,6.40
2019-04-01T11:45:34.169Z,7.93
2019-04-01T11:48:01.470Z,7.30
2019-04-01T11:50:28.557Z,7.13
2019-04-01T11:52:56.014Z,6.03
2019-04-01T11:55:23.235Z,7.90
2019-04-01T11:57:52.619Z,9.10
2019-04-01T12:00:19.795Z,7.40
2019-04-01T12:02:46.819Z,7.73
2019-04-01T12:05:13.947Z,8.20
2019-04-01T12:07:41.359Z,8.80
2019-04-01T12:10:09.978Z,7.30
2019-04-01T12:12:37.144Z,8.63
2019-04-01T12:15:04.568Z,8.17
2019-04-01T12:17:31.531Z,8.00
2019-04-01T12:19:58.824Z,9.10
2019-04-01T12:22:25.711Z,9.33
2019-04-01T12:24:53.247Z,8.50
2019-04-01T12:27:21.420Z,8.47
2019-04-01T12:29:49.863Z,8.00
2019-04-01T12:32:16.868Z,8.77
2019-04-01T12:34:43.924Z,8.13
2019-04-01T12:37:11.025Z,13.87
2019-04-01T12:39:38.012Z,9.90
2019-04-01T12:42:05.181Z,9.47
2019-04-01T12:44:32.235Z,7.50
2019-04-01T12:46:59.435Z,7.70
2019-04-01T12:49:26.447Z,7.20
2019-04-01T12:51:53.995Z,8.50
2019-04-01T12:54:21.831Z,8.13
2019-04-01T12:56:48.915Z,9.13
2019-04-01T12:59:16.060Z,8.13
2019-04-01T13:01:43.532Z,7.50
2019-04-01T13:04:10.527Z,8.80
2019-04-01T13:06:38.129Z,7.43
2019-04-01T13:09:06.275Z,8.70
2019-04-01T13:11:34.032Z,8.43
2019-04-01T13:14:01.457Z,7.93
2019-04-01T13:16:29.087Z,8.50
2019-04-01T13:18:57.551Z,8.27
2019-04-01T13:21:24.663Z,8.77
2019-04-01T13:23:52.029Z,8.67
2019-04-01T13:26:19.147Z,8.00
2019-04-01T13:28:46.132Z,8.30
2019-04-01T13:31:13.422Z,7.77
2019-04-01T13:33:40.616Z,9.90
2019-04-01T13:36:08.518Z,8.63
2019-04-01T13:38:36.147Z,8.63
2019-04-01T13:41:03.498Z,9.30
2019-04-01T13:43:30.844Z,9.00
2019-04-01T13:45:57.825Z,8.23
2019-04-01T13:48:24.988Z,9.00
2019-04-01T13:50:52.091Z,9.73
2019-04-01T13:53:19.311Z,8.40
2019-04-01T13:55:46.332Z,7.47
2019-04-01T13:58:17.359Z,7.67
2019-04-01T14:00:43.616Z,10.03
2019-04-01T14:03:11.867Z,8.23
2019-04-01T14:05:39.103Z,9.67
2019-04-01T14:08:06.230Z,14.73
2019-04-01T14:10:33.555Z,13.20
2019-04-01T14:13:00.508Z,12.70
2019-04-01T14:15:27.860Z,13.10
2019-04-01T14:17:54.859Z,11.67
2019-04-01T14:20:23.471Z,10.00
2019-04-01T14:22:53.453Z,8.80
2019-04-01T14:25:20.187Z,9.67
2019-04-01T14:27:48.099Z,9.40
2019-04-01T14:30:15.348Z,9.67
2019-04-01T14:32:42.311Z,8.93
2019-04-01T14:35:10.764Z,9.53
2019-04-01T14:37:39.764Z,10.77
2019-04-01T14:40:09.082Z,9.50
2019-04-01T14:42:37.302Z,9.90
2019-04-01T14:45:07.183Z,10.10
2019-04-01T14:47:34.167Z,7.27
2019-04-01T14:50:02.838Z,9.10
2019-04-01T14:52:32.604Z,8.97
2019-04-01T14:54:59.361Z,9.90
2019-04-01T14:57:26.747Z,9.03
2019-04-01T14:59:56.258Z,9.37
2019-04-01T15:02:23.710Z,8.20
2019-04-01T15:04:50.927Z,8.97
2019-04-01T15:07:18.584Z,9.07
2019-04-01T15:09:46.837Z,8.83
2019-04-01T15:12:15.597Z,7.67
2019-04-01T15:14:42.679Z,10.77
2019-04-01T15:17:09.561Z,8.90
2019-04-01T15:19:36.869Z,8.80
2019-04-01T15:22:04.070Z,9.53
2019-04-01T15:24:31.174Z,7.47
2019-04-01T15:26:58.483Z,9.00
2019-04-01T15:29:26.391Z,10.37
2019-04-01T15:31:54.139Z,9.80
2019-04-01T15:34:22.975Z,8.50
2019-04-01T15:36:50.762Z,8.10
2019-04-01T15:39:18.091Z,8.27
2019-04-01T15:41:45.437Z,9.20
2019-04-01T15:44:13.024Z,7.70
2019-04-01T15:46:40.052Z,18.13
2019-04-01T15:49:11.017Z,17.33
2019-04-01T15:51:36.105Z,9.37
2019-04-01T15:54:04.467Z,9.27
2019-04-01T15:56:31.620Z,8.47
2019-04-01T15:58:59.321Z,8.30
2019-04-01T16:01:26.483Z,8.50
2019-04-01T16:03:54.184Z,8.60
2019-04-01T16:06:21.303Z,10.20
2019-04-01T16:08:48.429Z,9.23
2019-04-01T16:11:15.571Z,8.83
2019-04-01T16:13:43.187Z,10.73
2019-04-01T16:16:14.305Z,9.27
2019-04-01T16:18:40.848Z,8.93
2019-04-01T16:21:08.067Z,8.80
2019-04-01T16:23:35.512Z,9.63
2019-04-01T16:26:02.617Z,8.93
2019-04-01T16:28:29.739Z,9.37
2019-04-01T16:30:57.169Z,9.47
2019-04-01T16:33:24.331Z,10.10
2019-04-01T16:35:51.459Z,8.47
2019-04-01T16:38:18.588Z,8.07
2019-04-01T16:40:45.703Z,9.33
2019-04-01T16:43:12.819Z,9.70
2019-04-01T16:45:40.775Z,10.30
2019-04-01T16:48:08.481Z,10.60
2019-04-01T16:50:36.571Z,34.33
2019-04-01T16:53:03.753Z,26.10
2019-04-01T16:55:31.288Z,12.50
2019-04-01T16:57:58.749Z,9.57
2019-04-01T17:00:26.230Z,8.47
2019-04-01T17:02:54.794Z,8.53
2019-04-01T17:05:28.196Z,9.13
2019-04-01T17:07:55.286Z,9.17
2019-04-01T17:10:23.996Z,8.30
2019-04-01T17:12:52.305Z,8.73
2019-04-01T17:15:21.169Z,8.27
2019-04-01T17:17:50.019Z,7.93
2019-04-01T17:20:17.895Z,8.73
2019-04-01T17:22:45.145Z,8.77
2019-04-01T17:25:14.551Z,7.93
2019-04-01T17:27:41.744Z,8.13
2019-04-01T17:30:11.339Z,8.90
2019-04-01T17:32:39.248Z,8.23
2019-04-01T17:35:06.649Z,8.80
2019-04-01T17:37:35.864Z,8.60
2019-04-01T17:40:06.009Z,7.40
2019-04-01T17:42:33.247Z,8.90
2019-04-01T17:45:05.131Z,7.23
2019-04-01T17:47:32.724Z,8.13
2019-04-01T17:50:01.514Z,7.80
2019-04-01T17:52:29.454Z,9.00
2019-04-01T17:54:56.562Z,7.60
2019-04-01T17:57:24.231Z,6.80
2019-04-01T17:59:51.919Z,6.63
2019-04-01T18:02:26.230Z,6.60
2019-04-01T18:04:53.976Z,6.60
2019-04-01T18:07:24.416Z,6.77
2019-04-01T18:09:51.356Z,5.80
2019-04-01T18:12:19.069Z,6.33
2019-04-01T18:14:47.151Z,6.03
2019-04-01T18:17:18.413Z,6.30
2019-04-01T18:19:45.987Z,6.23
2019-04-01T18:22:13.947Z,5.73
2019-04-01T18:24:41.096Z,5.83
2019-04-01T18:27:08.224Z,6.10
2019-04-01T18:29:38.130Z,6.47
2019-04-01T18:32:05.680Z,6.47
2019-04-01T18:34:33.830Z,6.17
2019-04-01T18:37:01.253Z,6.40
2019-04-01T18:39:30.711Z,6.57
2019-04-01T18:41:59.726Z,5.67
2019-04-01T18:44:28.573Z,10.13
2019-04-01T18:46:56.535Z,6.07
2019-04-01T18:49:24.394Z,6.10
2019-04-01T18:51:51.795Z,6.90
2019-04-01T18:54:18.729Z,5.23
2019-04-01T18:56:47.830Z,5.80
2019-04-01T18:59:15.292Z,5.90
2019-04-01T19:01:44.610Z,5.50
2019-04-01T19:04:12.612Z,12.40
2019-04-01T19:06:39.839Z,8.70
2019-04-01T19:09:10.834Z,8.03
2019-04-01T19:11:38.479Z,4.90
2019-04-01T19:14:07.198Z,5.20
2019-04-01T19:16:34.840Z,5.67
2019-04-01T19:19:02.002Z,5.73
2019-04-01T19:21:29.683Z,5.03
2019-04-01T19:23:57.161Z,5.20
2019-04-01T19:26:25.352Z,4.33
2019-04-01T19:28:58.201Z,4.90
2019-04-01T19:31:25.343Z,5.07
2019-04-01T19:33:52.563Z,4.10
2019-04-01T19:36:19.948Z,4.90
2019-04-01T19:38:48.040Z,5.60
2019-04-01T19:41:15.081Z,4.30
2019-04-01T19:43:43.077Z,5.20
2019-04-01T19:46:10.853Z,5.43
2019-04-01T19:48:38.375Z,5.13
2019-04-01T19:51:06.208Z,4.13
2019-04-01T19:53:34.816Z,5.70
2019-04-01T19:56:03.038Z,5.40
2019-04-01T19:58:31.528Z,5.43
2019-04-01T20:01:01.668Z,6.13
2019-04-01T20:03:29.583Z,5.80
2019-04-01T20:05:56.428Z,4.67
2019-04-01T20:08:23.544Z,5.40
2019-04-01T20:10:51.316Z,5.57
2019-04-01T20:13:20.413Z,5.37
2019-04-01T20:15:47.295Z,5.80
2019-04-01T20:18:14.632Z,5.20
2019-04-01T20:20:43.047Z,5.67
2019-04-01T20:23:12.286Z,4.40
2019-04-01T20:25:39.375Z,4.83
2019-04-01T20:28:07.807Z,5.27
2019-04-01T20:30:37.934Z,4.83
2019-04-01T20:33:17.027Z,4.53
2019-04-01T20:35:35.961Z,5.83
2019-04-01T20:38:03.593Z,5.13
2019-04-01T20:40:31.035Z,6.50
2019-04-01T20:42:58.464Z,6.20
2019-04-01T20:45:25.560Z,5.87
2019-04-01T20:47:53.443Z,6.50
2019-04-01T20:50:21.949Z,5.77
2019-04-01T20:52:50.183Z,5.23
2019-04-01T20:55:17.478Z,4.70
2019-04-01T20:57:46.082Z,5.27
2019-04-01T21:00:13.908Z,4.77
2019-04-01T21:02:41.591Z,5.63
2019-04-01T21:05:09.023Z,4.87
2019-04-01T21:07:36.732Z,4.20
2019-04-01T21:10:04.767Z,4.50
2019-04-01T21:12:32.483Z,4.07
2019-04-01T21:15:01.282Z,4.80
2019-04-01T21:17:29.724Z,5.23
2019-04-01T21:19:56.696Z,5.30
2019-04-01T21:22:23.583Z,4.70
2019-04-01T21:24:50.711Z,4.60
2019-04-01T21:27:17.843Z,10.47
2019-04-01T21:29:45.237Z,16.53
2019-04-01T21:32:13.907Z,15.83
2019-04-01T21:34:41.692Z,9.97
2019-04-01T21:37:08.724Z,5.37
2019-04-01T21:39:37.866Z,5.53
2019-04-01T21:42:05.119Z,5.10
2019-04-01T21:44:33.088Z,5.03
2019-04-01T21:47:00.785Z,5.60
2019-04-01T21:49:27.947Z,5.17
2019-04-01T21:51:55.171Z,5.70
2019-04-01T21:54:24.071Z,5.83
2019-04-01T21:56:52.026Z,5.33
2019-04-01T21:59:20.489Z,5.47
2019-04-01T22:01:47.876Z,6.13
2019-04-01T22:04:14.719Z,5.10
2019-04-01T22:06:42.343Z,6.07
2019-04-01T22:09:10.156Z,5.63
2019-04-01T22:11:37.257Z,5.40
2019-04-01T22:14:04.647Z,5.77
2019-04-01T22:16:33.563Z,5.60
2019-04-01T22:19:01.035Z,6.20
2019-04-01T22:21:29.051Z,5.63
2019-04-01T22:23:56.219Z,5.63
2019-04-01T22:26:23.372Z,6.10
2019-04-01T22:28:51.972Z,5.57
2019-04-01T22:31:19.607Z,5.70
2019-04-01T22:33:47.203Z,6.07
2019-04-01T22:36:14.484Z,6.37
2019-04-01T22:38:42.047Z,5.40
2019-04-01T22:41:10.287Z,6.10
2019-04-01T22:43:37.872Z,5.83
2019-04-01T22:46:05.467Z,6.37
2019-04-01T22:48:32.886Z,6.90
2019-04-01T22:51:00.023Z,5.93
2019-04-01T22:53:27.149Z,11.40
2019-04-01T22:55:54.336Z,14.60
2019-04-01T22:58:22.178Z,11.43
2019-04-01T23:00:49.928Z,8.83
2019-04-01T23:03:16.931Z,17.93
2019-04-01T23:05:44.643Z,27.33
2019-04-01T23:08:12.191Z,12.70
2019-04-01T23:10:39.499Z,6.97
2019-04-01T23:13:07.607Z,6.30
2019-04-01T23:15:35.140Z,6.23
2019-04-01T23:18:02.768Z,7.67
2019-04-01T23:20:33.317Z,6.40
2019-04-01T23:23:00.852Z,6.07
2019-04-01T23:25:27.863Z,8.10
2019-04-01T23:27:55.822Z,6.40
2019-04-01T23:30:23.183Z,5.50
2019-04-01T23:32:50.163Z,5.50
2019-04-01T23:35:18.523Z,5.77
2019-04-01T23:37:45.685Z,5.57
2019-04-01T23:40:12.948Z,5.80
2019-04-01T23:42:41.067Z,6.00
2019-04-01T23:45:10.587Z,5.40
2019-04-01T23:47:39.527Z,6.03
2019-04-01T23:50:09.196Z,6.70
2019-04-01T23:52:36.907Z,5.90
2019-04-01T23:55:04.634Z,5.20
2019-04-01T23:57:32.400Z,6.40
